»·PEaware :: N714LF KSBP-KSBA

N714LF :: KSBP-KSBA

FLIGHT INFORMATION

Flight Status: Arrived
Operator: Privately registered:
United States
More flights under this callsign
Pilot: David R. (15748)
Aircraft: CESSNA 172 SKYHAWK
(C172)
More flights by this aircraft type
Origin: KSBP San Luis Co Regl
United States
Destination: KSBA Santa Barbara Mun
United States
More flights between these airports :: More routes between these airports
Route: MQO V27 GVO
File this flight plan on PilotEdge
Remarks: RV ILS 7
Altitude:
(Current/Filed)
7,000ft
Speed:
(Current/Filed)
90kts
Departed: 06-Aug-18 02:41 PM
Arrived: 06-Aug-18 03:33 PM
Distance/Time
Traveled:
63nm/0:51
Distance/Time
To Go:
Arrived

Flight Plot

Page will automatically refresh every two minutes.


Map Options




Map Legend


Flown Route
Filed Route
Departure Airport
Arrival Airport
Navaid (VOR, NDB)
Fix

Horizontal Profiles

Position Reports

Time Latitude Longitude Heading Altitude Ground
Speed
06-Aug-18 14:32 35.238806 -120.641084 238 215ft 0kts
06-Aug-18 14:33 35.238806 -120.641084 238 215ft 0kts
06-Aug-18 14:34 35.238806 -120.641084 238 215ft 0kts
06-Aug-18 14:35 35.238806 -120.641085 238 215ft 0kts
06-Aug-18 14:36 35.238806 -120.641085 238 215ft 0kts
06-Aug-18 14:37 35.238805 -120.641085 238 215ft 0kts
06-Aug-18 14:38 35.237595 -120.639536 124 215ft 17kts
06-Aug-18 14:39 35.234438 -120.633823 123 215ft 17kts
06-Aug-18 14:40 35.233430 -120.632426 205 215ft 0kts
06-Aug-18 14:41 35.233430 -120.632426 205 215ft 0kts
06-Aug-18 14:42 35.235827 -120.638324 305 270ft 72kts
06-Aug-18 14:43 35.249618 -120.662859 304 946ft 92kts
06-Aug-18 14:44 35.261935 -120.684711 304 1534ft 93kts
06-Aug-18 14:45 35.276521 -120.710710 299 2224ft 91kts
06-Aug-18 14:46 35.270110 -120.738033 221 2921ft 87kts
06-Aug-18 14:47 35.252219 -120.757447 221 3602ft 85kts
06-Aug-18 14:48 35.235605 -120.743910 140 4294ft 82kts
06-Aug-18 14:49 35.217456 -120.727656 137 4977ft 78kts
06-Aug-18 14:50 35.200785 -120.712818 134 5643ft 69kts
06-Aug-18 14:51 35.186507 -120.700366 130 6282ft 55kts
06-Aug-18 14:52 35.174781 -120.690663 130 6803ft 50kts
06-Aug-18 14:53 35.161366 -120.679132 130 7070ft 80kts
06-Aug-18 14:54 35.141277 -120.658213 130 7002ft 100kts
06-Aug-18 14:55 35.119494 -120.636513 135 7000ft 102kts
06-Aug-18 14:56 35.096378 -120.616381 135 7000ft 102kts
06-Aug-18 14:57 35.073213 -120.596212 135 7000ft 102kts
06-Aug-18 14:58 35.050101 -120.576095 135 7000ft 102kts
06-Aug-18 14:59 35.026979 -120.555975 135 7000ft 102kts
06-Aug-18 15:00 35.003793 -120.535804 135 7000ft 102kts
06-Aug-18 15:01 34.980770 -120.515575 134 7000ft 101kts
06-Aug-18 15:02 34.958020 -120.494981 134 7000ft 101kts
06-Aug-18 15:03 34.935282 -120.474403 134 7000ft 101kts
06-Aug-18 15:04 34.912817 -120.453588 132 7000ft 101kts
06-Aug-18 15:05 34.890818 -120.432041 132 7000ft 101kts
06-Aug-18 15:06 34.868801 -120.410480 132 7000ft 101kts
06-Aug-18 15:07 34.846902 -120.389039 132 7000ft 101kts
06-Aug-18 15:08 34.824618 -120.367881 133 7000ft 101kts
06-Aug-18 15:09 34.802187 -120.346783 133 7000ft 101kts
06-Aug-18 15:10 34.780107 -120.325708 131 7000ft 101kts
06-Aug-18 15:11 34.758463 -120.303691 131 7000ft 101kts
06-Aug-18 15:12 34.736892 -120.281747 131 7000ft 101kts
06-Aug-18 15:13 34.715307 -120.259796 131 7000ft 101kts
06-Aug-18 15:14 34.693477 -120.238260 133 7000ft 101kts
06-Aug-18 15:15 34.671055 -120.217202 133 7000ft 101kts
06-Aug-18 15:16 34.648649 -120.196164 133 7000ft 101kts
06-Aug-18 15:17 34.626291 -120.175177 133 7000ft 101kts
06-Aug-18 15:18 34.603696 -120.154506 135 7000ft 102kts
06-Aug-18 15:19 34.578049 -120.141525 196 7007ft 119kts
06-Aug-18 15:20 34.545635 -120.160443 197 6549ft 135kts
06-Aug-18 15:21 34.510973 -120.177852 193 5847ft 135kts
06-Aug-18 15:22 34.474795 -120.191588 193 5151ft 136kts
06-Aug-18 15:23 34.449890 -120.168565 115 4467ft 126kts
06-Aug-18 15:24 34.433972 -120.131242 115 3991ft 116kts
06-Aug-18 15:25 34.426003 -120.096031 93 3854ft 115kts
06-Aug-18 15:26 34.422712 -120.058085 89 3483ft 102kts
06-Aug-18 15:27 34.423577 -120.024315 87 3046ft 97kts
06-Aug-18 15:28 34.424501 -119.995933 87 2291ft 82kts
06-Aug-18 15:29 34.425390 -119.969103 87 1646ft 75kts
06-Aug-18 15:30 34.426170 -119.945636 87 1257ft 65kts
06-Aug-18 15:31 34.426772 -119.921240 89 1167ft 80kts
06-Aug-18 15:32 34.427250 -119.894833 89 833ft 78kts
06-Aug-18 15:33 34.427363 -119.868825 89 381ft 73kts
06-Aug-18 15:34 34.427676 -119.847159 88 13ft 35kts
06-Aug-18 15:35 34.428349 -119.838085 349 13ft 0kts
06-Aug-18 15:36 34.429006 -119.837779 80 13ft 7kts
06-Aug-18 15:37 34.431137 -119.838701 59 13ft 16kts
06-Aug-18 15:38 34.432923 -119.833966 8 13ft 6kts
06-Aug-18 15:39 34.433006 -119.833953 7 13ft 0kts
06-Aug-18 15:40 34.433006 -119.833953 7 13ft 0kts
06-Aug-18 15:41 34.433007 -119.833953 7 13ft 0kts
06-Aug-18 15:42 34.433007 -119.833953 7 13ft 0kts

Navigation Log

Ident Type
1. KSBP Airport
2. MQO Navaid
3. AVILA Fix
4. NINOO Fix
5. FABEG Fix
6. ORCUT Fix
7. AFOXY Fix
8. GVO Navaid
9. KSBA Airport